sensor_id;sensor_type;location;lat;lon;timestamp;P1;durP1;ratioP1;P2;durP2;ratioP2
2001;SDS011;1003;48.002;7.788;2022-08-21T00:01:18;1.97;;;1.83;;
2001;SDS011;1003;48.002;7.788;2022-08-21T00:03:50;2.50;;;2.10;;
2001;SDS011;1003;48.002;7.788;2022-08-21T00:06:17;2.00;;;1.80;;
2001;SDS011;1003;48.002;7.788;2022-08-21T00:08:44;3.10;;;1.97;;
2001;SDS011;1003;48.002;7.788;2022-08-21T00:11:13;3.20;;;2.10;;
2001;SDS011;1003;48.002;7.788;2022-08-21T00:13:40;3.37;;;2.27;;
2001;SDS011;1003;48.002;7.788;2022-08-21T00:16:07;2.30;;;2.10;;
2001;SDS011;1003;48.002;7.788;2022-08-21T00:18:36;2.20;;;1.90;;
2001;SDS011;1003;48.002;7.788;2022-08-21T00:21:03;3.67;;;2.07;;
2001;SDS011;1003;48.002;7.788;2022-08-21T00:23:32;2.73;;;2.50;;
2001;SDS011;1003;48.002;7.788;2022-08-21T00:26:00;2.30;;;2.10;;
2001;SDS011;1003;48.002;7.788;2022-08-21T00:28:30;3.10;;;1.90;;
2001;SDS011;1003;48.002;7.788;2022-08-21T00:30:58;2.33;;;1.80;;
2001;SDS011;1003;48.002;7.788;2022-08-21T00:33:25;2.10;;;1.90;;
2001;SDS011;1003;48.002;7.788;2022-08-21T00:35:52;2.10;;;1.90;;
2001;SDS011;1003;48.002;7.788;2022-08-21T00:38:20;2.00;;;1.80;;
2001;SDS011;1003;48.002;7.788;2022-08-21T00:40:48;2.97;;;1.90;;
2001;SDS011;1003;48.002;7.788;2022-08-21T00:43:19;2.53;;;2.00;;
2001;SDS011;1003;48.002;7.788;2022-08-21T00:45:54;3.80;;;2.00;;
2001;SDS011;1003;48.002;7.788;2022-08-21T00:48:23;4.07;;;1.90;;
2001;SDS011;1003;48.002;7.788;2022-08-21T00:50:52;2.93;;;1.90;;
2001;SDS011;1003;48.002;7.788;2022-08-21T00:53:25;2.30;;;2.10;;
2001;SDS011;1003;48.002;7.788;2022-08-21T00:55:55;4.37;;;2.30;;
2001;SDS011;1003;48.002;7.788;2022-08-21T00:58:24;4.13;;;2.37;;
2001;SDS011;1003;48.002;7.788;2022-08-21T01:00:57;3.07;;;2.23;;
2001;SDS011;1003;48.002;7.788;2022-08-21T01:03:28;2.60;;;2.40;;
2001;SDS011;1003;48.002;7.788;2022-08-21T01:05:55;2.53;;;2.33;;
2001;SDS011;1003;48.002;7.788;2022-08-21T01:08:22;3.77;;;2.47;;
2001;SDS011;1003;48.002;7.788;2022-08-21T01:10:50;2.93;;;2.20;;
2001;SDS011;1003;48.002;7.788;2022-08-21T01:13:19;4.47;;;2.40;;
2001;SDS011;1003;48.002;7.788;2022-08-21T01:15:49;2.70;;;2.20;;
2001;SDS011;1003;48.002;7.788;2022-08-21T01:18:21;3.40;;;2.20;;
2001;SDS011;1003;48.002;7.788;2022-08-21T01:21:01;3.57;;;2.67;;
2001;SDS011;1003;48.002;7.788;2022-08-21T01:23:32;3.53;;;2.40;;
2001;SDS011;1003;48.002;7.788;2022-08-21T01:26:01;2.93;;;2.43;;
2001;SDS011;1003;48.002;7.788;2022-08-21T01:28:29;2.83;;;2.60;;
2001;SDS011;1003;48.002;7.788;2022-08-21T01:31:05;2.83;;;2.40;;
2001;SDS011;1003;48.002;7.788;2022-08-21T01:33:39;2.67;;;2.10;;
2001;SDS011;1003;48.002;7.788;2022-08-21T01:36:08;2.60;;;2.40;;
2001;SDS011;1003;48.002;7.788;2022-08-21T01:38:35;3.83;;;2.43;;
2001;SDS011;1003;48.002;7.788;2022-08-21T01:41:03;4.10;;;2.30;;
2001;SDS011;1003;48.002;7.788;2022-08-21T01:43:30;3.37;;;2.40;;
2001;SDS011;1003;48.002;7.788;2022-08-21T01:45:57;3.40;;;2.50;;
2001;SDS011;1003;48.002;7.788;2022-08-21T01:48:24;2.50;;;2.30;;
2001;SDS011;1003;48.002;7.788;2022-08-21T01:50:51;3.40;;;2.50;;
2001;SDS011;1003;48.002;7.788;2022-08-21T01:53:20;2.57;;;2.37;;
2001;SDS011;1003;48.002;7.788;2022-08-21T01:55:47;2.77;;;2.57;;
2001;SDS011;1003;48.002;7.788;2022-08-21T01:58:14;4.77;;;3.00;;
2001;SDS011;1003;48.002;7.788;2022-08-21T02:00:41;3.00;;;2.60;;
2001;SDS011;1003;48.002;7.788;2022-08-21T02:03:08;3.50;;;2.90;;
2001;SDS011;1003;48.002;7.788;2022-08-21T02:05:35;4.77;;;2.57;;
2001;SDS011;1003;48.002;7.788;2022-08-21T02:08:02;2.73;;;2.23;;
2001;SDS011;1003;48.002;7.788;2022-08-21T02:10:33;2.50;;;2.30;;
2001;SDS011;1003;48.002;7.788;2022-08-21T02:13:00;2.50;;;2.30;;
2001;SDS011;1003;48.002;7.788;2022-08-21T02:15:27;2.47;;;2.27;;
2001;SDS011;1003;48.002;7.788;2022-08-21T02:17:57;3.20;;;2.30;;
2001;SDS011;1003;48.002;7.788;2022-08-21T02:20:28;3.30;;;2.57;;
2001;SDS011;1003;48.002;7.788;2022-08-21T02:22:59;2.90;;;2.60;;
2001;SDS011;1003;48.002;7.788;2022-08-21T02:25:27;3.87;;;2.43;;
2001;SDS011;1003;48.002;7.788;2022-08-21T02:27:57;2.73;;;2.53;;
2001;SDS011;1003;48.002;7.788;2022-08-21T02:30:30;3.57;;;2.73;;
2001;SDS011;1003;48.002;7.788;2022-08-21T02:33:02;4.07;;;2.70;;
2001;SDS011;1003;48.002;7.788;2022-08-21T02:35:31;3.80;;;2.60;;
2001;SDS011;1003;48.002;7.788;2022-08-21T02:37:59;3.10;;;2.60;;
2001;SDS011;1003;48.002;7.788;2022-08-21T02:40:30;4.30;;;2.57;;
2001;SDS011;1003;48.002;7.788;2022-08-21T02:43:02;2.80;;;2.50;;
2001;SDS011;1003;48.002;7.788;2022-08-21T02:45:31;3.73;;;2.60;;
2001;SDS011;1003;48.002;7.788;2022-08-21T02:48:00;3.13;;;2.50;;
2001;SDS011;1003;48.002;7.788;2022-08-21T02:50:31;3.07;;;2.30;;
2001;SDS011;1003;48.002;7.788;2022-08-21T02:53:03;2.83;;;2.40;;
2001;SDS011;1003;48.002;7.788;2022-08-21T02:55:31;3.37;;;2.50;;
2001;SDS011;1003;48.002;7.788;2022-08-21T02:58:03;3.13;;;2.80;;
2001;SDS011;1003;48.002;7.788;2022-08-21T03:00:34;2.93;;;2.20;;
2001;SDS011;1003;48.002;7.788;2022-08-21T03:03:03;3.10;;;2.10;;
2001;SDS011;1003;48.002;7.788;2022-08-21T03:05:33;2.70;;;2.10;;
2001;SDS011;1003;48.002;7.788;2022-08-21T03:08:02;2.47;;;2.27;;
2001;SDS011;1003;48.002;7.788;2022-08-21T03:10:34;4.93;;;2.50;;
2001;SDS011;1003;48.002;7.788;2022-08-21T03:13:07;2.83;;;2.27;;
2001;SDS011;1003;48.002;7.788;2022-08-21T03:15:35;2.90;;;2.30;;
2001;SDS011;1003;48.002;7.788;2022-08-21T03:18:03;4.27;;;2.27;;
2001;SDS011;1003;48.002;7.788;2022-08-21T03:20:32;7.77;;;2.80;;
2001;SDS011;1003;48.002;7.788;2022-08-21T03:23:01;2.70;;;2.30;;
2001;SDS011;1003;48.002;7.788;2022-08-21T03:25:33;5.53;;;2.50;;
2001;SDS011;1003;48.002;7.788;2022-08-21T03:28:03;2.60;;;2.40;;
2001;SDS011;1003;48.002;7.788;2022-08-21T03:30:36;4.27;;;2.40;;
2001;SDS011;1003;48.002;7.788;2022-08-21T03:33:06;2.87;;;2.50;;
2001;SDS011;1003;48.002;7.788;2022-08-21T03:35:36;4.23;;;2.33;;
2001;SDS011;1003;48.002;7.788;2022-08-21T03:38:03;4.10;;;2.60;;
2001;SDS011;1003;48.002;7.788;2022-08-21T03:40:30;3.30;;;2.37;;
2001;SDS011;1003;48.002;7.788;2022-08-21T03:42:59;5.97;;;2.60;;
2001;SDS011;1003;48.002;7.788;2022-08-21T03:45:28;3.80;;;2.40;;
2001;SDS011;1003;48.002;7.788;2022-08-21T03:47:58;3.00;;;2.70;;
2001;SDS011;1003;48.002;7.788;2022-08-21T03:50:31;6.87;;;2.50;;
2001;SDS011;1003;48.002;7.788;2022-08-21T03:53:02;2.57;;;2.30;;
2001;SDS011;1003;48.002;7.788;2022-08-21T03:55:30;3.37;;;2.37;;
2001;SDS011;1003;48.002;7.788;2022-08-21T03:57:57;3.77;;;2.60;;
2001;SDS011;1003;48.002;7.788;2022-08-21T04:00:24;2.97;;;2.17;;
2001;SDS011;1003;48.002;7.788;2022-08-21T04:02:53;3.07;;;2.50;;
2001;SDS011;1003;48.002;7.788;2022-08-21T04:05:22;3.47;;;2.80;;
2001;SDS011;1003;48.002;7.788;2022-08-21T04:07:55;4.93;;;2.77;;
2001;SDS011;1003;48.002;7.788;2022-08-21T04:10:28;4.67;;;2.87;;
2001;SDS011;1003;48.002;7.788;2022-08-21T04:12:58;5.37;;;2.60;;
2001;SDS011;1003;48.002;7.788;2022-08-21T04:15:27;4.10;;;2.50;;
2001;SDS011;1003;48.002;7.788;2022-08-21T04:17:58;3.53;;;2.50;;
2001;SDS011;1003;48.002;7.788;2022-08-21T04:20:28;3.07;;;2.50;;
2001;SDS011;1003;48.002;7.788;2022-08-21T04:22:58;4.43;;;2.70;;
2001;SDS011;1003;48.002;7.788;2022-08-21T04:25:28;2.83;;;2.50;;
2001;SDS011;1003;48.002;7.788;2022-08-21T04:27:58;4.07;;;2.80;;
2001;SDS011;1003;48.002;7.788;2022-08-21T04:30:27;4.57;;;2.70;;
2001;SDS011;1003;48.002;7.788;2022-08-21T04:32:58;4.47;;;2.80;;
2001;SDS011;1003;48.002;7.788;2022-08-21T04:35:28;3.40;;;2.50;;
2001;SDS011;1003;48.002;7.788;2022-08-21T04:37:58;3.13;;;2.43;;
2001;SDS011;1003;48.002;7.788;2022-08-21T04:40:27;5.63;;;3.03;;
2001;SDS011;1003;48.002;7.788;2022-08-21T04:42:57;3.83;;;2.40;;
2001;SDS011;1003;48.002;7.788;2022-08-21T04:45:31;3.37;;;2.37;;
2001;SDS011;1003;48.002;7.788;2022-08-21T04:48:06;3.07;;;2.60;;
2001;SDS011;1003;48.002;7.788;2022-08-21T04:50:39;3.07;;;2.40;;
2001;SDS011;1003;48.002;7.788;2022-08-21T04:53:14;3.23;;;2.40;;
2001;SDS011;1003;48.002;7.788;2022-08-21T04:55:45;3.43;;;2.33;;
2001;SDS011;1003;48.002;7.788;2022-08-21T04:58:15;2.70;;;2.40;;
2001;SDS011;1003;48.002;7.788;2022-08-21T05:00:45;2.40;;;2.10;;
2001;SDS011;1003;48.002;7.788;2022-08-21T05:03:15;3.03;;;2.40;;
2001;SDS011;1003;48.002;7.788;2022-08-21T05:05:43;3.17;;;2.20;;
2001;SDS011;1003;48.002;7.788;2022-08-21T05:08:11;4.67;;;2.47;;
2001;SDS011;1003;48.002;7.788;2022-08-21T05:10:43;3.07;;;2.20;;
2001;SDS011;1003;48.002;7.788;2022-08-21T05:13:11;3.00;;;2.37;;
2001;SDS011;1003;48.002;7.788;2022-08-21T05:15:39;3.63;;;2.13;;
2001;SDS011;1003;48.002;7.788;2022-08-21T05:18:08;2.37;;;2.10;;
2001;SDS011;1003;48.002;7.788;2022-08-21T05:20:37;3.57;;;2.33;;
2001;SDS011;1003;48.002;7.788;2022-08-21T05:23:07;3.20;;;2.40;;
2001;SDS011;1003;48.002;7.788;2022-08-21T05:25:35;3.80;;;2.20;;
2001;SDS011;1003;48.002;7.788;2022-08-21T05:28:02;2.60;;;2.40;;
2001;SDS011;1003;48.002;7.788;2022-08-21T05:30:30;4.67;;;2.43;;
2001;SDS011;1003;48.002;7.788;2022-08-21T05:32:58;3.60;;;2.30;;
2001;SDS011;1003;48.002;7.788;2022-08-21T05:35:28;3.27;;;2.13;;
2001;SDS011;1003;48.002;7.788;2022-08-21T05:37:59;3.33;;;2.30;;
2001;SDS011;1003;48.002;7.788;2022-08-21T05:40:29;2.77;;;2.43;;
2001;SDS011;1003;48.002;7.788;2022-08-21T05:42:58;3.03;;;2.20;;
2001;SDS011;1003;48.002;7.788;2022-08-21T05:45:27;3.30;;;2.33;;
2001;SDS011;1003;48.002;7.788;2022-08-21T05:47:57;2.90;;;2.20;;
2001;SDS011;1003;48.002;7.788;2022-08-21T05:50:32;3.87;;;2.33;;
2001;SDS011;1003;48.002;7.788;2022-08-21T05:53:03;2.47;;;2.27;;
2001;SDS011;1003;48.002;7.788;2022-08-21T05:55:35;2.73;;;2.30;;
2001;SDS011;1003;48.002;7.788;2022-08-21T05:58:04;3.17;;;2.40;;
2001;SDS011;1003;48.002;7.788;2022-08-21T06:00:34;2.67;;;2.47;;
2001;SDS011;1003;48.002;7.788;2022-08-21T06:03:03;4.97;;;2.50;;
2001;SDS011;1003;48.002;7.788;2022-08-21T06:05:38;2.93;;;2.50;;
2001;SDS011;1003;48.002;7.788;2022-08-21T06:08:06;3.63;;;2.30;;
2001;SDS011;1003;48.002;7.788;2022-08-21T06:10:33;5.20;;;2.13;;
2001;SDS011;1003;48.002;7.788;2022-08-21T06:13:03;2.40;;;2.20;;
2001;SDS011;1003;48.002;7.788;2022-08-21T06:15:32;3.57;;;2.20;;
2001;SDS011;1003;48.002;7.788;2022-08-21T06:18:01;2.97;;;2.30;;
2001;SDS011;1003;48.002;7.788;2022-08-21T06:20:30;4.30;;;2.20;;
2001;SDS011;1003;48.002;7.788;2022-08-21T06:23:00;5.20;;;2.40;;
2001;SDS011;1003;48.002;7.788;2022-08-21T06:25:29;3.80;;;2.50;;
2001;SDS011;1003;48.002;7.788;2022-08-21T06:28:02;3.97;;;2.23;;
2001;SDS011;1003;48.002;7.788;2022-08-21T06:30:33;2.60;;;2.00;;
2001;SDS011;1003;48.002;7.788;2022-08-21T06:33:04;4.50;;;2.20;;
2001;SDS011;1003;48.002;7.788;2022-08-21T06:35:33;3.37;;;2.13;;
2001;SDS011;1003;48.002;7.788;2022-08-21T06:38:02;2.43;;;1.83;;
2001;SDS011;1003;48.002;7.788;2022-08-21T06:40:33;3.10;;;1.97;;
2001;SDS011;1003;48.002;7.788;2022-08-21T06:43:07;2.77;;;2.00;;
2001;SDS011;1003;48.002;7.788;2022-08-21T06:45:41;3.57;;;2.07;;
2001;SDS011;1003;48.002;7.788;2022-08-21T06:48:10;4.87;;;2.00;;
2001;SDS011;1003;48.002;7.788;2022-08-21T06:50:40;2.77;;;2.00;;
2001;SDS011;1003;48.002;7.788;2022-08-21T06:53:10;3.60;;;1.90;;
2001;SDS011;1003;48.002;7.788;2022-08-21T06:55:43;4.03;;;2.00;;
2001;SDS011;1003;48.002;7.788;2022-08-21T06:58:12;3.23;;;2.20;;
2001;SDS011;1003;48.002;7.788;2022-08-21T07:00:44;3.27;;;1.90;;
2001;SDS011;1003;48.002;7.788;2022-08-21T07:03:17;4.43;;;2.10;;
2001;SDS011;1003;48.002;7.788;2022-08-21T07:05:48;3.30;;;2.20;;
2001;SDS011;1003;48.002;7.788;2022-08-21T07:08:19;2.30;;;2.10;;
2001;SDS011;1003;48.002;7.788;2022-08-21T07:10:48;2.43;;;1.90;;
2001;SDS011;1003;48.002;7.788;2022-08-21T07:13:16;5.07;;;2.50;;
2001;SDS011;1003;48.002;7.788;2022-08-21T07:15:44;4.00;;;2.47;;
2001;SDS011;1003;48.002;7.788;2022-08-21T07:18:14;3.10;;;2.30;;
2001;SDS011;1003;48.002;7.788;2022-08-21T07:20:47;3.87;;;2.30;;
2001;SDS011;1003;48.002;7.788;2022-08-21T07:23:22;2.70;;;2.40;;
2001;SDS011;1003;48.002;7.788;2022-08-21T07:25:58;2.70;;;2.40;;
2001;SDS011;1003;48.002;7.788;2022-08-21T07:28:29;2.60;;;2.40;;
2001;SDS011;1003;48.002;7.788;2022-08-21T07:31:00;3.27;;;2.40;;
2001;SDS011;1003;48.002;7.788;2022-08-21T07:33:32;4.63;;;2.47;;
2001;SDS011;1003;48.002;7.788;2022-08-21T07:36:02;5.23;;;2.60;;
2001;SDS011;1003;48.002;7.788;2022-08-21T07:38:31;4.23;;;2.90;;
2001;SDS011;1003;48.002;7.788;2022-08-21T07:41:00;4.80;;;2.50;;
2001;SDS011;1003;48.002;7.788;2022-08-21T07:43:28;3.57;;;2.87;;
2001;SDS011;1003;48.002;7.788;2022-08-21T07:45:56;4.10;;;2.70;;
2001;SDS011;1003;48.002;7.788;2022-08-21T07:48:23;4.30;;;2.87;;
2001;SDS011;1003;48.002;7.788;2022-08-21T07:50:51;3.53;;;2.80;;
2001;SDS011;1003;48.002;7.788;2022-08-21T07:53:20;3.03;;;2.43;;
2001;SDS011;1003;48.002;7.788;2022-08-21T07:55:47;4.07;;;2.30;;
2001;SDS011;1003;48.002;7.788;2022-08-21T07:58:16;6.03;;;2.80;;
2001;SDS011;1003;48.002;7.788;2022-08-21T08:00:43;4.50;;;2.43;;
2001;SDS011;1003;48.002;7.788;2022-08-21T08:03:11;3.27;;;2.20;;
2001;SDS011;1003;48.002;7.788;2022-08-21T08:05:39;4.80;;;2.50;;
2001;SDS011;1003;48.002;7.788;2022-08-21T08:08:06;2.80;;;2.30;;
2001;SDS011;1003;48.002;7.788;2022-08-21T08:10:35;2.53;;;2.30;;
2001;SDS011;1003;48.002;7.788;2022-08-21T08:13:04;4.07;;;2.43;;
2001;SDS011;1003;48.002;7.788;2022-08-21T08:15:33;4.20;;;2.50;;
2001;SDS011;1003;48.002;7.788;2022-08-21T08:18:02;4.70;;;2.60;;
2001;SDS011;1003;48.002;7.788;2022-08-21T08:20:29;3.80;;;2.60;;
2001;SDS011;1003;48.002;7.788;2022-08-21T08:22:57;3.40;;;2.10;;
2001;SDS011;1003;48.002;7.788;2022-08-21T08:25:25;3.50;;;2.40;;
2001;SDS011;1003;48.002;7.788;2022-08-21T08:27:53;3.10;;;2.10;;
2001;SDS011;1003;48.002;7.788;2022-08-21T08:30:20;3.23;;;2.33;;
2001;SDS011;1003;48.002;7.788;2022-08-21T08:32:50;4.80;;;2.20;;
2001;SDS011;1003;48.002;7.788;2022-08-21T08:35:18;3.50;;;2.30;;
2001;SDS011;1003;48.002;7.788;2022-08-21T08:37:45;4.20;;;2.50;;
2001;SDS011;1003;48.002;7.788;2022-08-21T08:40:14;4.97;;;2.40;;
2001;SDS011;1003;48.002;7.788;2022-08-21T08:42:49;2.87;;;2.10;;
2001;SDS011;1003;48.002;7.788;2022-08-21T08:45:18;3.67;;;2.47;;
2001;SDS011;1003;48.002;7.788;2022-08-21T08:47:51;2.57;;;2.30;;
2001;SDS011;1003;48.002;7.788;2022-08-21T08:50:28;3.77;;;2.23;;
2001;SDS011;1003;48.002;7.788;2022-08-21T08:53:07;3.80;;;2.50;;
2001;SDS011;1003;48.002;7.788;2022-08-21T08:55:44;3.20;;;2.27;;
2001;SDS011;1003;48.002;7.788;2022-08-21T08:58:14;3.83;;;2.53;;
2001;SDS011;1003;48.002;7.788;2022-08-21T09:00:49;2.40;;;2.00;;
2001;SDS011;1003;48.002;7.788;2022-08-21T09:03:20;4.47;;;2.40;;
2001;SDS011;1003;48.002;7.788;2022-08-21T09:05:53;7.23;;;2.57;;
2001;SDS011;1003;48.002;7.788;2022-08-21T09:08:33;4.70;;;2.43;;
2001;SDS011;1003;48.002;7.788;2022-08-21T09:11:19;7.13;;;3.00;;
2001;SDS011;1003;48.002;7.788;2022-08-21T09:13:56;6.37;;;2.50;;
2001;SDS011;1003;48.002;7.788;2022-08-21T09:16:38;3.97;;;2.20;;
2001;SDS011;1003;48.002;7.788;2022-08-21T09:19:21;5.60;;;2.40;;
2001;SDS011;1003;48.002;7.788;2022-08-21T09:22:06;3.10;;;2.50;;
2001;SDS011;1003;48.002;7.788;2022-08-21T09:24:47;5.27;;;2.83;;
2001;SDS011;1003;48.002;7.788;2022-08-21T09:27:26;4.17;;;2.90;;
2001;SDS011;1003;48.002;7.788;2022-08-21T09:29:57;3.93;;;2.40;;
2001;SDS011;1003;48.002;7.788;2022-08-21T09:32:25;3.80;;;2.40;;
2001;SDS011;1003;48.002;7.788;2022-08-21T09:34:57;4.23;;;2.53;;
2001;SDS011;1003;48.002;7.788;2022-08-21T09:37:27;6.47;;;3.00;;
2001;SDS011;1003;48.002;7.788;2022-08-21T09:39:59;5.60;;;3.00;;
2001;SDS011;1003;48.002;7.788;2022-08-21T09:42:41;4.07;;;2.50;;
2001;SDS011;1003;48.002;7.788;2022-08-21T09:45:10;5.70;;;2.50;;
2001;SDS011;1003;48.002;7.788;2022-08-21T09:47:41;4.63;;;2.90;;
2001;SDS011;1003;48.002;7.788;2022-08-21T09:50:14;3.70;;;2.50;;
2001;SDS011;1003;48.002;7.788;2022-08-21T09:52:46;3.53;;;2.50;;
2001;SDS011;1003;48.002;7.788;2022-08-21T09:55:20;6.27;;;2.70;;
2001;SDS011;1003;48.002;7.788;2022-08-21T09:58:17;4.57;;;2.73;;
2001;SDS011;1003;48.002;7.788;2022-08-21T10:00:47;6.13;;;2.80;;
2001;SDS011;1003;48.002;7.788;2022-08-21T10:03:25;5.27;;;2.60;;
2001;SDS011;1003;48.002;7.788;2022-08-21T10:05:57;6.37;;;2.77;;
2001;SDS011;1003;48.002;7.788;2022-08-21T10:08:30;5.13;;;2.50;;
2001;SDS011;1003;48.002;7.788;2022-08-21T10:11:02;5.93;;;2.30;;
2001;SDS011;1003;48.002;7.788;2022-08-21T10:16:27;4.00;;;2.53;;
2001;SDS011;1003;48.002;7.788;2022-08-21T10:19:13;5.63;;;3.00;;
2001;SDS011;1003;48.002;7.788;2022-08-21T10:21:57;5.17;;;2.60;;
2001;SDS011;1003;48.002;7.788;2022-08-21T10:24:36;4.70;;;2.43;;
2001;SDS011;1003;48.002;7.788;2022-08-21T10:27:14;6.03;;;2.60;;
2001;SDS011;1003;48.002;7.788;2022-08-21T10:29:51;5.20;;;2.40;;
2001;SDS011;1003;48.002;7.788;2022-08-21T10:32:28;2.83;;;2.10;;
2001;SDS011;1003;48.002;7.788;2022-08-21T10:35:14;2.97;;;2.10;;
2001;SDS011;1003;48.002;7.788;2022-08-21T10:37:58;5.23;;;2.40;;
2001;SDS011;1003;48.002;7.788;2022-08-21T10:40:48;4.17;;;2.20;;
2001;SDS011;1003;48.002;7.788;2022-08-21T10:43:29;4.23;;;2.27;;
2001;SDS011;1003;48.002;7.788;2022-08-21T10:46:12;5.17;;;2.40;;
2001;SDS011;1003;48.002;7.788;2022-08-21T10:48:49;3.00;;;2.30;;
2001;SDS011;1003;48.002;7.788;2022-08-21T10:51:26;4.73;;;2.40;;
2001;SDS011;1003;48.002;7.788;2022-08-21T10:54:05;4.57;;;2.10;;
2001;SDS011;1003;48.002;7.788;2022-08-21T10:56:44;3.77;;;2.10;;
2001;SDS011;1003;48.002;7.788;2022-08-21T10:59:22;3.70;;;2.00;;
2001;SDS011;1003;48.002;7.788;2022-08-21T11:01:57;2.97;;;1.90;;
2001;SDS011;1003;48.002;7.788;2022-08-21T11:04:34;2.20;;;1.63;;
2001;SDS011;1003;48.002;7.788;2022-08-21T11:07:15;1.20;;;1.10;;
2001;SDS011;1003;48.002;7.788;2022-08-21T11:09:50;1.70;;;1.30;;
2001;SDS011;1003;48.002;7.788;2022-08-21T11:12:24;3.20;;;1.63;;
2001;SDS011;1003;48.002;7.788;2022-08-21T11:15:06;2.13;;;1.60;;
2001;SDS011;1003;48.002;7.788;2022-08-21T11:18:01;2.77;;;1.47;;
2001;SDS011;1003;48.002;7.788;2022-08-21T11:20:48;2.70;;;1.70;;
2001;SDS011;1003;48.002;7.788;2022-08-21T11:23:29;3.63;;;1.93;;
2001;SDS011;1003;48.002;7.788;2022-08-21T11:26:10;3.80;;;1.90;;
2001;SDS011;1003;48.002;7.788;2022-08-21T11:28:45;4.50;;;2.00;;
2001;SDS011;1003;48.002;7.788;2022-08-21T11:31:29;2.10;;;1.80;;
2001;SDS011;1003;48.002;7.788;2022-08-21T11:34:14;3.77;;;1.80;;
2001;SDS011;1003;48.002;7.788;2022-08-21T11:37:14;2.97;;;2.00;;
2001;SDS011;1003;48.002;7.788;2022-08-21T11:39:55;2.47;;;1.93;;
2001;SDS011;1003;48.002;7.788;2022-08-21T11:42:35;2.17;;;1.67;;
2001;SDS011;1003;48.002;7.788;2022-08-21T11:45:14;2.47;;;1.70;;
2001;SDS011;1003;48.002;7.788;2022-08-21T11:47:56;2.63;;;1.80;;
2001;SDS011;1003;48.002;7.788;2022-08-21T11:50:39;3.93;;;1.80;;
2001;SDS011;1003;48.002;7.788;2022-08-21T11:53:12;2.27;;;1.63;;
2001;SDS011;1003;48.002;7.788;2022-08-21T11:55:48;2.43;;;1.60;;
2001;SDS011;1003;48.002;7.788;2022-08-21T11:58:27;1.63;;;1.43;;
2001;SDS011;1003;48.002;7.788;2022-08-21T12:01:03;1.97;;;1.60;;
2001;SDS011;1003;48.002;7.788;2022-08-21T12:03:36;1.30;;;1.20;;
2001;SDS011;1003;48.002;7.788;2022-08-21T12:06:10;5.13;;;1.77;;
2001;SDS011;1003;48.002;7.788;2022-08-21T12:08:40;5.77;;;2.20;;
2001;SDS011;1003;48.002;7.788;2022-08-21T12:11:22;3.23;;;2.17;;
2001;SDS011;1003;48.002;7.788;2022-08-21T12:13:57;4.00;;;2.10;;
2001;SDS011;1003;48.002;7.788;2022-08-21T12:16:37;6.03;;;2.20;;
2001;SDS011;1003;48.002;7.788;2022-08-21T12:19:07;2.27;;;1.87;;
2001;SDS011;1003;48.002;7.788;2022-08-21T12:21:47;3.30;;;2.23;;
2001;SDS011;1003;48.002;7.788;2022-08-21T12:24:18;4.03;;;2.40;;
2001;SDS011;1003;48.002;7.788;2022-08-21T12:27:01;3.07;;;2.20;;
2001;SDS011;1003;48.002;7.788;2022-08-21T12:29:52;3.90;;;2.20;;
2001;SDS011;1003;48.002;7.788;2022-08-21T12:32:24;3.70;;;2.33;;
2001;SDS011;1003;48.002;7.788;2022-08-21T12:34:55;3.17;;;2.17;;
2001;SDS011;1003;48.002;7.788;2022-08-21T12:37:34;3.13;;;1.90;;
2001;SDS011;1003;48.002;7.788;2022-08-21T12:40:10;4.93;;;2.10;;
2001;SDS011;1003;48.002;7.788;2022-08-21T12:42:46;3.40;;;2.20;;
2001;SDS011;1003;48.002;7.788;2022-08-21T12:45:20;4.17;;;1.90;;
2001;SDS011;1003;48.002;7.788;2022-08-21T12:47:57;2.07;;;1.87;;
2001;SDS011;1003;48.002;7.788;2022-08-21T12:50:35;2.57;;;1.80;;
2001;SDS011;1003;48.002;7.788;2022-08-21T12:53:10;2.90;;;1.93;;
2001;SDS011;1003;48.002;7.788;2022-08-21T12:55:49;2.03;;;1.90;;
2001;SDS011;1003;48.002;7.788;2022-08-21T12:58:18;2.10;;;1.90;;
2001;SDS011;1003;48.002;7.788;2022-08-21T13:00:49;1.80;;;1.63;;
2001;SDS011;1003;48.002;7.788;2022-08-21T13:03:20;3.93;;;1.90;;
2001;SDS011;1003;48.002;7.788;2022-08-21T13:05:49;2.63;;;2.03;;
2001;SDS011;1003;48.002;7.788;2022-08-21T13:08:18;3.10;;;2.00;;
2001;SDS011;1003;48.002;7.788;2022-08-21T13:10:55;3.50;;;2.00;;
2001;SDS011;1003;48.002;7.788;2022-08-21T13:13:29;2.50;;;1.80;;
2001;SDS011;1003;48.002;7.788;2022-08-21T13:16:02;2.80;;;1.90;;
2001;SDS011;1003;48.002;7.788;2022-08-21T13:18:33;2.67;;;1.80;;
2001;SDS011;1003;48.002;7.788;2022-08-21T13:21:06;4.27;;;1.97;;
2001;SDS011;1003;48.002;7.788;2022-08-21T13:23:38;4.03;;;2.13;;
2001;SDS011;1003;48.002;7.788;2022-08-21T13:26:11;3.57;;;2.10;;
2001;SDS011;1003;48.002;7.788;2022-08-21T13:28:40;3.00;;;2.13;;
2001;SDS011;1003;48.002;7.788;2022-08-21T13:31:10;4.07;;;1.93;;
2001;SDS011;1003;48.002;7.788;2022-08-21T13:33:38;3.97;;;2.10;;
2001;SDS011;1003;48.002;7.788;2022-08-21T13:36:09;3.23;;;2.00;;
2001;SDS011;1003;48.002;7.788;2022-08-21T13:38:40;4.37;;;2.23;;
2001;SDS011;1003;48.002;7.788;2022-08-21T13:41:13;2.17;;;1.87;;
2001;SDS011;1003;48.002;7.788;2022-08-21T13:43:55;3.27;;;2.10;;
2001;SDS011;1003;48.002;7.788;2022-08-21T13:46:30;2.20;;;1.70;;
2001;SDS011;1003;48.002;7.788;2022-08-21T13:49:01;5.10;;;2.17;;
2001;SDS011;1003;48.002;7.788;2022-08-21T13:51:32;4.43;;;1.90;;
2001;SDS011;1003;48.002;7.788;2022-08-21T13:54:01;4.53;;;1.83;;
2001;SDS011;1003;48.002;7.788;2022-08-21T13:56:42;2.50;;;2.07;;
2001;SDS011;1003;48.002;7.788;2022-08-21T13:59:12;4.93;;;2.67;;
2001;SDS011;1003;48.002;7.788;2022-08-21T14:01:53;1.87;;;1.77;;
2001;SDS011;1003;48.002;7.788;2022-08-21T14:04:26;1.97;;;1.63;;
2001;SDS011;1003;48.002;7.788;2022-08-21T14:07:01;4.33;;;2.80;;
2001;SDS011;1003;48.002;7.788;2022-08-21T14:09:41;2.83;;;2.13;;
2001;SDS011;1003;48.002;7.788;2022-08-21T14:12:11;2.83;;;2.10;;
2001;SDS011;1003;48.002;7.788;2022-08-21T14:14:42;3.77;;;1.87;;
2001;SDS011;1003;48.002;7.788;2022-08-21T14:17:13;3.37;;;1.90;;
2001;SDS011;1003;48.002;7.788;2022-08-21T14:19:54;2.60;;;1.90;;
2001;SDS011;1003;48.002;7.788;2022-08-21T14:22:32;4.10;;;1.90;;
2001;SDS011;1003;48.002;7.788;2022-08-21T14:25:07;2.43;;;1.60;;
2001;SDS011;1003;48.002;7.788;2022-08-21T14:27:39;2.13;;;1.87;;
2001;SDS011;1003;48.002;7.788;2022-08-21T14:30:11;1.87;;;1.67;;
2001;SDS011;1003;48.002;7.788;2022-08-21T14:32:45;3.30;;;1.80;;
2001;SDS011;1003;48.002;7.788;2022-08-21T14:35:13;2.07;;;1.43;;
2001;SDS011;1003;48.002;7.788;2022-08-21T14:37:42;2.57;;;1.80;;
2001;SDS011;1003;48.002;7.788;2022-08-21T14:40:11;2.23;;;1.67;;
2001;SDS011;1003;48.002;7.788;2022-08-21T14:42:39;1.90;;;1.47;;
2001;SDS011;1003;48.002;7.788;2022-08-21T14:45:10;3.07;;;1.73;;
2001;SDS011;1003;48.002;7.788;2022-08-21T14:47:41;1.77;;;1.50;;
2001;SDS011;1003;48.002;7.788;2022-08-21T14:50:10;1.60;;;1.50;;
2001;SDS011;1003;48.002;7.788;2022-08-21T14:52:39;2.10;;;1.90;;
2001;SDS011;1003;48.002;7.788;2022-08-21T14:55:08;2.70;;;1.80;;
2001;SDS011;1003;48.002;7.788;2022-08-21T14:57:38;1.83;;;1.40;;
2001;SDS011;1003;48.002;7.788;2022-08-21T15:00:10;7.30;;;1.90;;
2001;SDS011;1003;48.002;7.788;2022-08-21T15:02:39;3.30;;;1.67;;
2001;SDS011;1003;48.002;7.788;2022-08-21T15:05:06;2.43;;;1.73;;
2001;SDS011;1003;48.002;7.788;2022-08-21T15:07:35;1.53;;;1.30;;
2001;SDS011;1003;48.002;7.788;2022-08-21T15:10:03;2.23;;;1.70;;
2001;SDS011;1003;48.002;7.788;2022-08-21T15:12:31;2.07;;;1.70;;
2001;SDS011;1003;48.002;7.788;2022-08-21T15:14:59;2.43;;;1.80;;
2001;SDS011;1003;48.002;7.788;2022-08-21T15:17:26;1.40;;;1.30;;
2001;SDS011;1003;48.002;7.788;2022-08-21T15:19:53;2.00;;;1.60;;
2001;SDS011;1003;48.002;7.788;2022-08-21T15:22:21;2.43;;;1.77;;
2001;SDS011;1003;48.002;7.788;2022-08-21T15:24:50;1.73;;;1.50;;
2001;SDS011;1003;48.002;7.788;2022-08-21T15:27:17;3.20;;;1.50;;
2001;SDS011;1003;48.002;7.788;2022-08-21T15:29:45;1.93;;;1.50;;
2001;SDS011;1003;48.002;7.788;2022-08-21T15:32:16;1.80;;;1.50;;
2001;SDS011;1003;48.002;7.788;2022-08-21T15:34:47;3.00;;;1.60;;
2001;SDS011;1003;48.002;7.788;2022-08-21T15:37:15;4.37;;;1.70;;
2001;SDS011;1003;48.002;7.788;2022-08-21T15:39:42;2.60;;;1.70;;
2001;SDS011;1003;48.002;7.788;2022-08-21T15:42:11;2.80;;;1.70;;
2001;SDS011;1003;48.002;7.788;2022-08-21T15:44:40;3.07;;;1.67;;
2001;SDS011;1003;48.002;7.788;2022-08-21T15:47:11;1.73;;;1.30;;